Time;durP1;ratioP1;P1;durP2;ratioP2;P2;SDS_P1;SDS_P2;PMS_P1;PMS_P2;Temp;Humidity;BMP_temperature;BMP_pressure;BME280_temperature;BME280_humidity;BME280_pressure;Samples;Min_cycle;Max_cycle;Signal;HPM_P1;HPM_P2
2022/09/05 00:01:24;;;;;;;12.38;9.70;;;;;;;16.64;100.00;93630.81;5048707;28;20146;-70
2022/09/05 00:04:00;;;;;;;10.48;9.25;;;;;;;16.63;100.00;93631.03;5050676;28;20049;-70
2022/09/05 00:06:32;;;;;;;;;;;;;;;16.63;100.00;93626.66;5050442;28;20095;-70
2022/09/05 00:09:08;;;;;;;10.60;8.93;;;;;;;16.40;100.00;93614.63;5050724;28;20320;-71
2022/09/05 00:11:41;;;;;;;12.20;9.57;;;;;;;16.34;100.00;93623.34;5050377;28;20578;-70
2022/09/05 00:14:27;;;;;;;11.32;9.20;;;;;;;16.32;100.00;93615.00;5050513;28;20099;-70
2022/09/05 00:17:05;;;;;;;10.20;9.10;;;;;;;16.34;100.00;93616.34;5050437;28;20067;-70
2022/09/05 00:19:42;;;;;;;10.35;8.90;;;;;;;16.26;100.00;93620.09;5049960;28;20574;-70
2022/09/05 00:22:31;;;;;;;9.23;8.30;;;;;;;16.12;100.00;93627.38;5049697;28;20429;-71
2022/09/05 00:25:10;;;;;;;10.05;8.10;;;;;;;16.17;100.00;93624.13;5050202;28;20045;-71
2022/09/05 00:27:47;;;;;;;10.57;8.80;;;;;;;16.05;100.00;93631.94;5049869;28;20049;-71
2022/09/05 00:30:18;;;;;;;9.55;8.55;;;;;;;16.14;100.00;93630.56;5050207;28;20057;-70
2022/09/05 00:33:00;;;;;;;11.15;10.05;;;;;;;15.88;100.00;93624.91;5049906;28;20048;-70
2022/09/05 00:35:48;;;;;;;12.95;10.77;;;;;;;15.81;100.00;93626.84;5084092;28;20044;-71
2022/09/05 00:38:17;;;;;;;12.02;10.30;;;;;;;15.86;100.00;93626.94;5090064;28;20397;-70
2022/09/05 00:40:48;;;;;;;11.55;10.35;;;;;;;15.85;100.00;93625.38;5090697;28;20577;-70
2022/09/05 00:43:19;;;;;;;12.50;11.25;;;;;;;15.68;100.00;93622.72;5090784;28;20437;-70
2022/09/05 00:45:53;;;;;;;12.35;11.15;;;;;;;15.79;100.00;93625.50;5090121;28;20090;-70
2022/09/05 00:48:28;;;;;;;13.27;11.10;;;;;;;15.75;100.00;93618.19;5089719;28;20044;-70
2022/09/05 00:51:22;;;;;;;13.60;11.90;;;;;;;15.80;100.00;93621.91;5090131;28;20040;-70
2022/09/05 00:53:59;;;;;;;12.95;11.55;;;;;;;15.81;100.00;93631.22;5090098;28;20375;-70
2022/09/05 00:56:49;;;;;;;14.73;12.60;;;;;;;15.69;100.00;93629.47;5090236;28;20045;-70
2022/09/05 00:59:47;;;;;;;13.95;12.55;;;;;;;15.74;100.00;93631.38;5089928;28;20105;-71
2022/09/05 01:02:28;;;;;;;16.42;13.48;;;;;;;15.63;100.00;93623.44;5090033;28;20056;-70
2022/09/05 01:05:05;;;;;;;15.85;13.55;;;;;;;15.69;100.00;93631.28;5089617;28;20040;-70
2022/09/05 01:07:45;;;;;;;14.70;13.10;;;;;;;15.60;100.00;93641.22;5089865;28;20045;-70
2022/09/05 01:10:22;;;;;;;14.07;12.68;;;;;;;15.50;100.00;93641.78;5089948;28;20066;-70
2022/09/05 01:13:13;;;;;;;14.93;13.43;;;;;;;15.41;100.00;93649.13;5089749;28;20044;-71
2022/09/05 01:15:50;;;;;;;16.02;14.32;;;;;;;15.40;100.00;93649.34;5089421;28;20044;-71
2022/09/05 01:18:38;;;;;;;16.55;14.85;;;;;;;15.29;100.00;93641.41;5089251;28;20124;-71
2022/09/05 01:21:26;;;;;;;18.63;16.80;;;;;;;15.33;100.00;93645.09;5089607;28;20048;-71
2022/09/05 01:24:20;;;;;;;17.90;15.38;;;;;;;15.41;100.00;93633.59;5089495;28;20094;-71
2022/09/05 01:27:29;;;;;;;16.27;14.57;;;;;;;15.34;100.00;93610.47;5088734;28;20488;-71
2022/09/05 01:30:04;;;;;;;16.52;14.82;;;;;;;15.72;100.00;93623.84;5089246;28;20040;-71
2022/09/05 01:32:41;;;;;;;16.60;14.90;;;;;;;15.83;100.00;93617.03;5089066;28;20591;-71
2022/09/05 01:35:41;;;;;;;15.95;14.25;;;;;;;15.81;100.00;93624.25;5088892;28;20052;-71
2022/09/05 01:38:14;;;;;;;17.27;15.45;;;;;;;15.89;100.00;93616.09;5089261;28;20458;-71
2022/09/05 01:40:52;;;;;;;17.67;15.68;;;;;;;16.00;100.00;93598.97;5089078;28;20039;-71
2022/09/05 01:43:34;;;;;;;16.77;15.00;;;;;;;16.08;100.00;93604.78;5088975;28;20052;-71
2022/09/05 01:46:19;;;;;;;16.50;14.82;;;;;;;16.11;100.00;93604.31;5089442;28;20048;-71
2022/09/05 01:48:53;;;;;;;16.42;14.73;;;;;;;16.05;100.00;93615.63;5088784;28;20487;-71
2022/09/05 01:51:29;;;;;;;16.75;14.90;;;;;;;15.97;100.00;93627.16;5089287;28;20097;-71
2022/09/05 01:54:06;;;;;;;16.52;14.75;;;;;;;15.86;100.00;93626.94;5089263;28;20490;-71
2022/09/05 01:56:49;;;;;;;16.08;14.48;;;;;;;15.88;100.00;93629.31;5089028;28;20044;-71
2022/09/05 01:59:37;;;;;;;15.57;13.88;;;;;;;15.75;100.00;93641.50;5088688;28;20567;-71
2022/09/05 02:02:24;;;;;;;17.08;15.32;;;;;;;15.80;100.00;93640.81;5089227;28;20117;-70
2022/09/05 02:05:25;;;;;;;17.58;15.82;;;;;;;15.85;100.00;93635.72;5088946;28;20044;-71
2022/09/05 02:08:07;;;;;;;17.00;15.13;;;;;;;15.86;100.00;93633.91;5089392;28;20097;-71
2022/09/05 02:10:43;;;;;;;16.65;14.95;;;;;;;15.90;100.00;93637.63;5089458;28;20048;-71
2022/09/05 02:13:24;;;;;;;18.30;16.50;;;;;;;15.97;100.00;93645.28;5089021;28;20047;-71
2022/09/05 02:15:59;;;;;;;16.85;15.10;;;;;;;16.05;100.00;93646.72;5089246;28;20089;-71
2022/09/05 02:18:32;;;;;;;17.88;15.13;;;;;;;16.07;100.00;93642.88;5089434;28;20414;-71
2022/09/05 02:21:02;;;;;;;15.43;13.55;;;;;;;16.02;100.00;93645.38;5088958;28;20138;-70
2022/09/05 02:23:40;;;;;;;17.05;15.35;;;;;;;15.93;100.00;93642.38;5088873;28;20492;-70
2022/09/05 02:26:16;;;;;;;16.55;13.68;;;;;;;15.83;100.00;93637.75;5088972;28;20044;-70
2022/09/05 02:28:51;;;;;;;16.23;14.52;;;;;;;15.72;100.00;93647.16;5090387;28;20523;-71
2022/09/05 02:31:26;;;;;;;12.75;11.25;;;;;;;15.34;100.00;93643.31;5092872;28;20051;-71
2022/09/05 02:34:00;;;;;;;11.07;9.65;;;;;;;15.22;100.00;93643.31;5092812;28;20098;-71
2022/09/05 02:36:35;;;;;;;13.98;11.00;;;;;;;15.06;100.00;93637.03;5092978;28;20040;-70
2022/09/05 02:39:13;;;;;;;12.55;11.25;;;;;;;15.06;100.00;93631.88;5093089;28;20054;-70
2022/09/05 02:41:45;;;;;;;14.10;10.82;;;;;;;14.94;100.00;93630.09;5092665;28;20139;-70
2022/09/05 02:44:20;;;;;;;11.10;9.80;;;;;;;15.01;100.00;93639.53;5092888;28;20134;-69
2022/09/05 02:46:57;;;;;;;11.75;10.55;;;;;;;15.02;100.00;93634.13;5093101;28;20121;-71
2022/09/05 02:49:37;;;;;;;12.60;9.90;;;;;;;15.06;100.00;93637.84;5092989;28;20040;-70
2022/09/05 02:52:07;;;;;;;13.10;10.77;;;;;;;15.14;100.00;93639.28;5093017;28;20052;-70
2022/09/05 02:54:38;;;;;;;13.52;12.15;;;;;;;15.08;100.00;93640.19;5092434;28;20566;-71
2022/09/05 02:57:18;;;;;;;15.85;12.70;;;;;;;14.99;100.00;93639.75;5092546;28;20043;-71
2022/09/05 03:00:05;;;;;;;15.57;13.32;;;;;;;15.15;100.00;93643.47;5092377;28;20487;-71
2022/09/05 03:02:44;;;;;;;16.10;14.40;;;;;;;15.17;100.00;93641.41;5092701;28;20086;-71
2022/09/05 03:05:20;;;;;;;16.33;14.25;;;;;;;15.22;100.00;93651.88;5092340;28;20565;-71
2022/09/05 03:08:08;;;;;;;16.13;14.43;;;;;;;15.23;100.00;93655.28;5092244;28;20519;-71
2022/09/05 03:11:18;;;;;;;15.93;14.23;;;;;;;15.32;100.00;93660.88;5092275;28;20496;-71
2022/09/05 03:14:09;;;;;;;17.17;14.57;;;;;;;15.40;100.00;93665.69;5080040;28;20508;-71
2022/09/05 03:17:14;;;;;;;18.80;15.45;;;;;;;15.45;100.00;93670.97;5092349;28;20461;-71
2022/09/05 03:20:10;;;;;;;18.02;16.10;;;;;;;15.53;100.00;93675.00;5092196;28;20536;-70
2022/09/05 03:23:27;;;;;;;16.52;14.52;;;;;;;15.64;100.00;93673.41;5091855;28;20512;-71
2022/09/05 03:26:34;;;;;;;16.63;14.85;;;;;;;15.63;100.00;93666.66;5091914;28;20050;-70
2022/09/05 03:29:42;;;;;;;15.85;13.88;;;;;;;15.67;100.00;93667.78;5079998;28;20043;-70
2022/09/05 03:32:52;;;;;;;17.40;15.30;;;;;;;15.67;100.00;93666.97;5092235;28;20120;-70
2022/09/05 03:36:09;;;;;;;12.70;10.68;;;;;;;15.35;100.00;93678.53;5050153;28;20045;-70
2022/09/05 03:39:15;;;;;;;12.20;9.73;;;;;;;15.27;100.00;93684.06;5084495;28;20050;-70
2022/09/05 03:42:04;;;;;;;12.32;10.30;;;;;;;15.35;100.00;93676.75;5081753;28;20048;-70
2022/09/05 03:44:44;;;;;;;12.48;10.00;;;;;;;15.32;100.00;93692.72;5091577;28;20544;-70
2022/09/05 03:47:34;;;;;;;13.38;11.15;;;;;;;15.36;100.00;93696.44;5091902;28;20117;-70
2022/09/05 03:50:21;;;;;;;14.38;10.93;;;;;;;15.39;100.00;93699.56;5092114;28;20048;-70
2022/09/05 03:53:16;;;;;;;12.10;10.90;;;;;;;15.44;100.00;93710.81;5092040;28;20453;-70
2022/09/05 03:56:04;;;;;;;14.80;11.75;;;;;;;15.49;100.00;93713.53;5086771;28;20454;-70
2022/09/05 03:58:50;;;;;;;14.52;12.63;;;;;;;15.60;100.00;93717.09;5091776;28;20044;-70
2022/09/05 04:01:20;;;;;;;15.57;13.88;;;;;;;15.63;100.00;93719.25;5091736;28;20047;-70
2022/09/05 04:03:51;;;;;;;17.42;14.18;;;;;;;15.69;100.00;93721.94;5091533;28;20056;-70
2022/09/05 04:06:21;;;;;;;17.85;14.57;;;;;;;15.68;100.00;93718.53;5091126;28;20580;-70
2022/09/05 04:08:53;;;;;;;18.27;15.93;;;;;;;15.70;100.00;93726.09;5091580;28;20048;-71
2022/09/05 04:11:30;;;;;;;18.27;15.68;;;;;;;15.70;100.00;93721.69;5091029;28;20056;-70
2022/09/05 04:14:02;;;;;;;17.63;15.73;;;;;;;15.75;100.00;93715.84;5090953;28;20052;-70
2022/09/05 04:16:32;;;;;;;18.70;15.93;;;;;;;15.77;100.00;93724.16;5091085;28;20048;-70
2022/09/05 04:19:10;;;;;;;15.80;14.07;;;;;;;15.74;100.00;93725.41;5090969;28;20568;-70
2022/09/05 04:21:46;;;;;;;18.73;16.05;;;;;;;15.80;100.00;93736.66;5090998;28;20097;-70
2022/09/05 04:24:20;;;;;;;18.65;15.77;;;;;;;15.82;100.00;93726.84;5091199;28;20052;-70
2022/09/05 04:27:25;;;;;;;17.15;15.25;;;;;;;15.79;100.00;93734.28;5091125;28;20442;-71
2022/09/05 04:29:59;;;;;;;;;;;;;;;15.81;100.00;93737.44;5080800;28;20044;-70
2022/09/05 04:32:40;;;;;;;14.68;13.02;;;;;;;15.61;100.00;93741.19;5090696;28;19920;-70
2022/09/05 04:35:23;;;;;;;16.20;14.32;;;;;;;15.69;100.00;93740.81;5091021;28;20056;-70
2022/09/05 04:37:57;;;;;;;13.93;12.20;;;;;;;15.68;100.00;93731.50;5076749;28;20048;-70
2022/09/05 04:40:47;;;;;;;13.23;11.18;;;;;;;15.85;100.00;93743.72;5090980;28;20044;-70
2022/09/05 04:43:30;;;;;;;11.02;9.07;;;;;;;15.89;100.00;93748.22;5079134;28;20102;-70
2022/09/05 04:46:06;;;;;;;13.20;10.38;;;;;;;15.94;100.00;93747.56;5090483;28;20400;-70
2022/09/05 04:48:34;;;;;;;;;;;;;;;16.11;100.00;93760.59;5091187;28;20058;-70
2022/09/05 04:51:07;;;;;;;12.13;10.70;;;;;;;16.08;100.00;93763.66;5090045;28;19965;-70
2022/09/05 04:53:45;;;;;;;11.98;9.43;;;;;;;16.25;100.00;93768.09;5090693;28;20109;-70
2022/09/05 04:56:19;;;;;;;13.45;10.57;;;;;;;16.35;100.00;93775.28;5090594;28;20056;-70
2022/09/05 04:58:54;;;;;;;11.35;9.35;;;;;;;16.46;100.00;93771.84;5090239;28;20102;-70
2022/09/05 05:01:26;;;;;;;13.03;9.60;;;;;;;16.49;100.00;93775.78;5090622;28;20168;-70
2022/09/05 05:03:53;;;;;;;10.05;8.95;;;;;;;16.55;100.00;93783.44;5090326;28;20461;-71
2022/09/05 05:06:26;;;;;;;10.07;7.95;;;;;;;16.40;100.00;93804.66;5090313;28;20089;-71
2022/09/05 05:08:57;;;;;;;8.93;6.88;;;;;;;16.09;100.00;93809.28;5090331;28;20051;-70
2022/09/05 05:11:43;;;;;;;10.57;7.80;;;;;;;16.06;100.00;93786.41;5090334;28;20044;-70
2022/09/05 05:14:15;;;;;;;9.85;7.78;;;;;;;16.07;100.00;93808.72;5090289;28;20101;-70
2022/09/05 05:16:51;;;;;;;8.55;7.65;;;;;;;15.97;100.00;93808.53;5090105;28;20036;-70
2022/09/05 05:19:23;;;;;;;9.07;8.02;;;;;;;15.84;100.00;93814.69;5089963;28;20048;-70
2022/09/05 05:21:53;;;;;;;10.65;8.13;;;;;;;15.96;100.00;93815.50;5090020;28;20047;-70
2022/09/05 05:24:23;;;;;;;9.80;8.50;;;;;;;15.93;100.00;93815.97;5089442;28;20055;-70
2022/09/05 05:26:55;;;;;;;11.70;8.88;;;;;;;15.97;100.00;93818.88;5089606;28;20532;-70
2022/09/05 05:29:28;;;;;;;9.20;8.30;;;;;;;15.87;100.00;93814.22;5089557;28;20052;-70
2022/09/05 05:31:59;;;;;;;10.35;8.93;;;;;;;15.77;100.00;93817.41;5089871;28;20040;-70
2022/09/05 05:34:33;;;;;;;10.13;8.82;;;;;;;15.83;100.00;93818.31;5076039;28;20495;-70
2022/09/05 05:37:04;;;;;;;8.57;7.65;;;;;;;15.55;100.00;93819.78;5089867;28;20044;-70
2022/09/05 05:39:37;;;;;;;9.85;7.93;;;;;;;15.59;100.00;93826.06;5089620;28;20044;-70
2022/09/05 05:42:04;;;;;;;10.60;8.02;;;;;;;15.59;100.00;93816.50;5089407;28;20504;-70
2022/09/05 05:44:34;;;;;;;9.48;8.48;;;;;;;15.59;100.00;93826.06;5089556;28;20180;-70
2022/09/05 05:47:07;;;;;;;8.88;7.60;;;;;;;15.58;100.00;93827.09;5089787;28;20427;-70
2022/09/05 05:49:47;;;;;;;10.73;8.35;;;;;;;15.61;100.00;93832.59;5089568;28;20106;-70
2022/09/05 05:52:38;;;;;;;9.38;8.00;;;;;;;15.70;100.00;93835.63;5089353;28;20499;-70
2022/09/05 05:55:18;;;;;;;8.77;7.20;;;;;;;15.69;100.00;93823.72;5077830;28;20040;-70
2022/09/05 05:58:00;;;;;;;9.38;6.95;;;;;;;15.68;100.00;93829.09;5089380;28;20048;-70
2022/09/05 06:00:47;;;;;;;7.97;6.78;;;;;;;15.63;100.00;93828.00;5089180;28;20044;-70
2022/09/05 06:03:45;;;;;;;7.35;6.32;;;;;;;15.65;100.00;93837.34;5088500;28;20466;-70
2022/09/05 06:06:37;;;;;;;9.20;6.38;;;;;;;15.56;100.00;93816.94;5089426;28;20039;-70
2022/09/05 06:09:39;;;;;;;7.45;6.03;;;;;;;15.72;100.00;93833.63;5089384;28;20412;-70
2022/09/05 06:12:31;;;;;;;7.07;5.25;;;;;;;15.73;100.00;93830.00;5089128;28;20138;-70
2022/09/05 06:15:48;;;;;;;6.13;4.78;;;;;;;15.81;100.00;93836.66;5086371;28;20044;-70
2022/09/05 06:18:58;;;;;;;6.25;4.93;;;;;;;15.96;100.00;93835.44;4999302;28;20441;-70
2022/09/05 06:22:01;;;;;;;5.80;4.55;;;;;;;15.69;100.00;93820.34;5034278;28;20053;-71
2022/09/05 06:24:59;;;;;;;6.45;5.22;;;;;;;15.99;100.00;93845.34;5088881;28;20052;-71
2022/09/05 06:27:42;;;;;;;6.75;5.57;;;;;;;16.28;100.00;93835.81;5077906;28;20082;-70
2022/09/05 06:30:13;;;;;;;7.88;5.90;;;;;;;16.42;100.00;93844.13;5088699;28;20496;-70
2022/09/05 06:32:57;;;;;;;6.00;4.50;;;;;;;16.50;100.00;93842.19;5088744;28;20040;-71
2022/09/05 06:35:32;;;;;;;6.15;5.13;;;;;;;16.36;100.00;93834.69;5088577;28;20613;-70
2022/09/05 06:38:25;;;;;;;5.32;4.78;;;;;;;16.43;100.00;93860.47;5089007;28;20040;-70
2022/09/05 06:41:04;;;;;;;9.45;5.00;;;;;;;16.39;100.00;93854.94;5088592;28;20500;-71
2022/09/05 06:43:44;;;;;;;5.40;4.75;;;;;;;16.51;100.00;93851.53;5089068;28;20052;-70
2022/09/05 06:46:25;;;;;;;8.25;5.32;;;;;;;16.73;100.00;93856.88;5088946;28;20048;-70
2022/09/05 06:48:58;;;;;;;9.52;4.78;;;;;;;16.89;100.00;93857.94;5088633;28;20052;-70
2022/09/05 06:51:52;;;;;;;5.97;4.15;;;;;;;16.75;100.00;93874.81;5089085;28;20048;-70
2022/09/05 06:54:34;;;;;;;5.20;4.00;;;;;;;16.77;100.00;93862.38;5088891;28;20040;-71
2022/09/05 06:57:26;;;;;;;5.72;3.95;;;;;;;16.95;100.00;93853.63;5088944;28;20056;-70
2022/09/05 07:00:05;;;;;;;6.68;4.53;;;;;;;16.92;100.00;93859.28;5088844;28;20089;-71
2022/09/05 07:02:36;;;;;;;4.80;3.70;;;;;;;17.03;100.00;93855.09;5088906;28;20044;-71
2022/09/05 07:05:14;;;;;;;4.85;3.80;;;;;;;17.17;100.00;93878.94;5088702;28;20093;-70
2022/09/05 07:07:46;;;;;;;5.75;4.20;;;;;;;17.32;100.00;93870.63;5088367;28;20159;-70
2022/09/05 07:10:23;;;;;;;5.07;3.95;;;;;;;17.33;100.00;93874.78;5088843;28;20093;-70
2022/09/05 07:12:54;;;;;;;4.97;3.53;;;;;;;16.97;100.00;93864.56;5088634;28;20098;-70
2022/09/05 07:15:35;;;;;;;5.00;3.83;;;;;;;17.08;100.00;93855.19;5090974;28;20098;-70
2022/09/05 07:18:12;;;;;;;6.20;4.07;;;;;;;17.40;100.00;93854.63;5092320;28;20055;-70
2022/09/05 07:20:46;;;;;;;4.75;3.40;;;;;;;17.40;100.00;93867.63;5091948;28;20048;-70
2022/09/05 07:23:24;;;;;;;5.97;3.55;;;;;;;17.65;100.00;93860.47;5092349;28;20052;-71
2022/09/05 07:25:53;;;;;;;4.28;3.10;;;;;;;17.58;100.00;93861.41;5092009;28;20496;-71
2022/09/05 07:28:20;;;;;;;4.43;3.28;;;;;;;17.72;100.00;93868.88;5092040;28;20050;-71
2022/09/05 07:30:50;;;;;;;5.72;3.17;;;;;;;17.82;100.00;93857.84;5091867;28;20094;-71
2022/09/05 07:33:20;;;;;;;4.03;2.78;;;;;;;17.93;100.00;93861.38;5092325;28;20055;-71
2022/09/05 07:35:49;;;;;;;4.47;3.00;;;;;;;17.75;100.00;93851.00;5092037;28;20408;-71
2022/09/05 07:38:20;;;;;;;3.53;2.72;;;;;;;17.94;100.00;93842.13;5091910;28;20442;-71
2022/09/05 07:40:53;;;;;;;5.03;3.05;;;;;;;18.14;100.00;93872.84;5092099;28;20052;-71
2022/09/05 07:43:26;;;;;;;5.38;3.47;;;;;;;18.16;100.00;93860.41;5091517;28;20048;-71
2022/09/05 07:46:10;;;;;;;6.25;3.53;;;;;;;18.24;100.00;93880.00;5091861;28;20044;-71
2022/09/05 07:48:41;;;;;;;3.67;2.83;;;;;;;18.20;99.49;93881.50;5091757;28;20052;-71
2022/09/05 07:51:12;;;;;;;3.92;2.90;;;;;;;18.23;99.17;93875.84;5091360;28;20127;-71
2022/09/05 07:53:43;;;;;;;4.20;2.80;;;;;;;18.65;99.25;93877.09;5091559;28;20048;-71
2022/09/05 07:56:13;;;;;;;4.35;2.97;;;;;;;18.72;99.48;93877.69;5091582;28;20093;-71
2022/09/05 07:58:48;;;;;;;3.22;2.88;;;;;;;18.72;96.35;93880.31;5091562;28;20497;-72
2022/09/05 08:01:18;;;;;;;4.20;3.08;;;;;;;18.48;96.82;93880.56;5091557;28;20040;-71
2022/09/05 08:03:45;;;;;;;4.72;3.25;;;;;;;18.58;98.87;93879.09;5091221;28;20085;-71
2022/09/05 08:06:18;;;;;;;6.10;3.67;;;;;;;18.68;99.22;93879.22;5091189;28;20496;-70
2022/09/05 08:08:53;;;;;;;4.30;3.33;;;;;;;18.72;95.14;93864.69;5091241;28;20047;-71
2022/09/05 08:11:24;;;;;;;4.53;3.63;;;;;;;18.91;98.18;93872.94;5090997;28;20044;-71
2022/09/05 08:13:58;;;;;;;5.28;3.58;;;;;;;18.77;100.00;93866.53;5091367;28;20044;-71
2022/09/05 08:16:26;;;;;;;6.75;4.30;;;;;;;18.95;98.81;93876.66;5091307;28;20131;-71
2022/09/05 08:19:02;;;;;;;4.45;3.47;;;;;;;18.95;98.21;93884.47;5091240;28;20055;-71
2022/09/05 08:21:38;;;;;;;6.65;4.07;;;;;;;18.65;100.00;93867.47;5090912;28;20048;-71
2022/09/05 08:24:11;;;;;;;11.73;8.15;;;;;;;18.96;100.00;93880.81;5086815;28;20137;-71
2022/09/05 08:26:44;;;;;;;5.38;3.97;;;;;;;19.01;100.00;93877.47;5087432;28;20492;-71
2022/09/05 08:29:25;;;;;;;11.18;7.75;;;;;;;19.32;97.20;93879.59;5089980;28;20381;-71
2022/09/05 08:31:55;;;;;;;5.13;3.78;;;;;;;18.99;95.39;93873.53;5090607;28;20042;-72
2022/09/05 08:34:34;;;;;;;4.85;3.47;;;;;;;19.19;95.22;93872.97;5090604;28;20488;-71
2022/09/05 08:37:02;;;;;;;5.30;3.70;;;;;;;19.45;93.00;93881.78;5090706;28;20048;-71
2022/09/05 08:39:33;;;;;;;5.18;3.78;;;;;;;19.43;94.53;93873.44;5090792;28;20081;-71
2022/09/05 08:42:15;;;;;;;4.15;3.30;;;;;;;19.33;92.54;93870.75;5090516;28;20097;-71
2022/09/05 08:44:53;;;;;;;5.70;3.53;;;;;;;19.34;93.99;93878.31;5090569;28;20047;-70
2022/09/05 08:47:28;;;;;;;4.68;3.30;;;;;;;19.18;92.13;93882.63;5090638;28;20116;-71
2022/09/05 08:50:22;;;;;;;4.05;3.20;;;;;;;19.28;92.06;93874.09;5090537;28;20059;-70
2022/09/05 08:53:02;;;;;;;4.22;2.85;;;;;;;19.63;93.04;93867.59;5090478;28;20079;-72
2022/09/05 08:55:39;;;;;;;3.53;2.80;;;;;;;19.94;90.40;93866.22;5090487;28;20044;-72
2022/09/05 08:58:27;;;;;;;3.60;2.70;;;;;;;19.86;88.63;93877.91;5090057;28;20051;-72
2022/09/05 09:01:05;;;;;;;4.20;2.72;;;;;;;19.40;89.08;93873.16;5090249;28;20044;-71
2022/09/05 09:03:43;;;;;;;4.35;2.90;;;;;;;19.33;89.66;93883.75;5090233;28;20047;-72
2022/09/05 09:06:18;;;;;;;4.20;2.97;;;;;;;19.38;92.15;93857.00;5090057;28;20052;-71
2022/09/05 09:08:58;;;;;;;4.55;3.00;;;;;;;19.48;94.45;93877.88;5090474;28;20044;-71
2022/09/05 09:11:33;;;;;;;3.90;3.20;;;;;;;19.71;93.31;93884.59;5090078;28;20052;-71
2022/09/05 09:14:35;;;;;;;4.50;3.05;;;;;;;19.76;91.63;93876.00;5089818;28;20044;-71
2022/09/05 09:17:16;;;;;;;4.13;2.70;;;;;;;19.99;91.21;93880.09;5090195;28;20155;-71
2022/09/05 09:19:48;;;;;;;3.80;2.90;;;;;;;20.05;87.89;93886.13;5089894;28;20450;-71
2022/09/05 09:22:21;;;;;;;4.10;2.75;;;;;;;19.75;89.15;93892.69;5090027;28;20526;-71
2022/09/05 09:24:59;;;;;;;4.90;3.17;;;;;;;19.97;89.27;93884.00;5089551;28;20519;-71
2022/09/05 09:27:38;;;;;;;4.35;3.30;;;;;;;20.13;86.59;93885.66;5089721;28;20052;-71
2022/09/05 09:30:07;;;;;;;5.13;2.67;;;;;;;20.14;85.23;93881.22;5089298;28;20044;-70
2022/09/05 09:32:44;;;;;;;3.92;2.90;;;;;;;20.07;86.13;93891.88;5090097;28;20415;-71
2022/09/05 09:35:21;;;;;;;4.63;2.97;;;;;;;19.97;86.27;93891.81;5089259;28;20591;-71
2022/09/05 09:38:19;;;;;;;3.53;2.22;;;;;;;19.77;87.20;93883.56;5075121;28;20122;-71
2022/09/05 09:41:25;;;;;;;3.80;2.50;;;;;;;19.82;83.20;93872.41;5089331;28;20085;-71
2022/09/05 09:44:10;;;;;;;4.93;3.13;;;;;;;20.04;86.54;93879.34;5088631;28;20074;-71
2022/09/05 09:46:43;;;;;;;3.40;2.40;;;;;;;20.32;84.82;93874.78;5089167;28;20563;-71
2022/09/05 09:49:39;;;;;;;4.32;2.55;;;;;;;20.35;84.27;93873.50;5089066;28;20150;-71
2022/09/05 09:52:39;;;;;;;4.05;2.10;;;;;;;20.51;82.52;93864.69;5088630;28;20093;-72
2022/09/05 09:55:41;;;;;;;5.07;2.65;;;;;;;20.77;82.44;93866.59;5088709;28;20569;-71
2022/09/05 09:58:35;;;;;;;3.47;2.20;;;;;;;20.66;77.27;93866.59;5088875;28;20565;-72
2022/09/05 10:01:17;;;;;;;5.18;2.65;;;;;;;20.78;79.01;93855.88;5053208;28;20123;-72
2022/09/05 10:04:30;;;;;;;4.45;2.38;;;;;;;20.73;76.21;93839.44;5088869;28;20048;-72
2022/09/05 10:07:26;;;;;;;3.75;2.03;;;;;;;20.97;74.75;93865.91;5006240;28;20046;-71
2022/09/05 10:10:15;;;;;;;3.15;2.10;;;;;;;21.09;78.06;93844.75;5006354;28;20029;-72
2022/09/05 10:13:21;;;;;;;3.20;1.90;;;;;;;21.13;74.86;93834.56;5071131;28;20093;-72
2022/09/05 10:16:23;;;;;;;2.95;1.90;;;;;;;21.15;73.09;93843.69;5088829;28;20085;-72
2022/09/05 10:19:11;;;;;;;2.58;1.70;;;;;;;21.14;71.51;93833.50;5088753;28;20443;-71
2022/09/05 10:21:59;;;;;;;4.22;2.22;;;;;;;21.14;74.89;93825.66;5088522;28;20415;-71
2022/09/05 10:24:59;;;;;;;3.58;2.13;;;;;;;21.06;75.42;93837.44;5088329;28;20052;-71
2022/09/05 10:27:39;;;;;;;3.28;2.13;;;;;;;21.16;74.00;93823.59;5088422;28;20101;-72
2022/09/05 10:30:10;;;;;;;6.90;2.45;;;;;;;21.05;75.74;93817.56;5088391;28;20036;-71
2022/09/05 10:32:42;;;;;;;3.15;2.10;;;;;;;21.33;74.00;93816.28;5088659;28;20462;-72
2022/09/05 10:35:24;;;;;;;3.03;1.67;;;;;;;21.44;74.45;93811.81;5088118;28;20116;-72
2022/09/05 10:37:56;;;;;;;2.65;1.88;;;;;;;21.43;72.52;93807.63;5088586;28;20079;-72
2022/09/05 10:40:25;;;;;;;3.80;2.00;;;;;;;21.55;72.38;93806.59;5084345;28;20462;-71
2022/09/05 10:42:54;;;;;;;5.15;1.73;;;;;;;21.76;68.55;93812.59;5086947;28;20094;-72
2022/09/05 10:45:27;;;;;;;3.58;2.03;;;;;;;21.80;70.59;93812.84;5081724;28;20064;-71
2022/09/05 10:48:06;;;;;;;3.40;1.77;;;;;;;21.38;67.83;93817.31;5088949;28;20040;-71
2022/09/05 10:50:41;;;;;;;3.03;1.67;;;;;;;21.40;70.16;93812.63;5091539;28;20044;-72
2022/09/05 10:53:26;;;;;;;3.27;1.83;;;;;;;21.30;68.40;93821.25;5092636;28;20048;-72
2022/09/05 10:56:04;;;;;;;3.28;1.70;;;;;;;21.39;68.01;93808.44;5091727;28;20131;-72
2022/09/05 10:58:58;;;;;;;2.28;1.38;;;;;;;21.47;66.59;93828.81;5089649;28;20055;-71
2022/09/05 11:01:33;;;;;;;2.72;1.50;;;;;;;21.59;65.84;93807.63;5092755;28;20043;-72
2022/09/05 11:04:16;;;;;;;3.42;2.03;;;;;;;21.88;67.54;93804.44;5092490;28;20552;-72
2022/09/05 11:07:04;;;;;;;4.25;2.00;;;;;;;21.72;67.62;93807.09;5080524;28;20051;-72
2022/09/05 11:09:52;;;;;;;4.30;2.05;;;;;;;21.75;65.18;93806.59;5092470;28;20048;-72
2022/09/05 11:12:31;;;;;;;3.92;2.22;;;;;;;21.82;64.41;93788.00;5091846;28;20086;-72
2022/09/05 11:15:02;;;;;;;3.33;1.95;;;;;;;22.07;64.65;93804.66;5092463;28;20500;-72
2022/09/05 11:17:35;;;;;;;3.05;1.95;;;;;;;21.72;64.81;93791.41;5092439;28;20125;-72
2022/09/05 11:20:23;;;;;;;3.85;1.65;;;;;;;21.56;64.22;93780.19;5092234;28;20048;-73
2022/09/05 11:23:00;;;;;;;2.20;1.50;;;;;;;21.91;65.52;93790.84;5089808;28;20085;-72
2022/09/05 11:25:29;;;;;;;2.95;1.70;;;;;;;22.23;64.71;93794.94;5091696;28;20047;-72
2022/09/05 11:28:04;;;;;;;2.50;1.50;;;;;;;21.88;65.32;93773.88;5092099;28;20085;-72
2022/09/05 11:30:39;;;;;;;3.30;1.73;;;;;;;22.05;64.73;93780.59;5091834;28;20050;-73
2022/09/05 11:33:50;;;;;;;3.47;1.58;;;;;;;21.98;64.60;93778.28;5091866;28;20044;-72
2022/09/05 11:36:20;;;;;;;3.85;1.77;;;;;;;21.87;64.33;93779.34;5079285;28;20451;-72
2022/09/05 11:39:00;;;;;;;3.13;1.85;;;;;;;21.57;66.92;93776.53;5091700;28;20052;-72
2022/09/05 11:42:00;;;;;;;5.22;2.35;;;;;;;21.41;66.05;93806.34;5091805;28;20048;-72
2022/09/05 11:44:34;;;;;;;3.30;2.25;;;;;;;21.44;69.53;93779.69;5091664;28;20065;-72
2022/09/05 11:47:23;;;;;;;3.33;2.72;;;;;;;21.66;69.32;93773.38;5091746;28;20052;-72
2022/09/05 11:50:33;;;;;;;4.38;2.13;;;;;;;21.58;69.60;93783.31;5091658;28;20093;-72
2022/09/05 11:53:38;;;;;;;2.90;2.17;;;;;;;21.84;71.13;93772.81;5052950;28;20101;-72
2022/09/05 11:56:37;;;;;;;5.57;2.80;;;;;;;22.09;69.50;93776.41;5090770;28;20051;-72
2022/09/05 11:59:45;;;;;;;3.60;2.03;;;;;;;21.85;67.01;93773.63;5091374;28;20047;-72
2022/09/05 12:02:32;;;;;;;3.20;2.22;;;;;;;22.04;67.70;93763.34;5007722;28;20046;-72
2022/09/05 12:05:18;;;;;;;3.90;2.45;;;;;;;22.13;67.35;93766.97;5070402;28;20046;-73
2022/09/05 12:07:59;;;;;;;2.95;2.20;;;;;;;22.22;67.20;93750.72;5091459;28;20089;-72
2022/09/05 12:10:37;;;;;;;3.20;1.92;;;;;;;22.38;65.81;93756.63;5091350;28;20602;-73
2022/09/05 12:13:41;;;;;;;4.30;2.28;;;;;;;22.16;66.19;93752.56;5090433;28;20386;-71
2022/09/05 12:16:20;;;;;;;3.03;1.67;;;;;;;21.92;65.44;93755.00;5091406;28;20044;-72
2022/09/05 12:19:04;;;;;;;3.38;2.45;;;;;;;22.01;64.43;93763.88;5091253;28;20044;-72
2022/09/05 12:21:36;;;;;;;3.95;2.28;;;;;;;22.21;66.34;93749.91;5091231;28;20044;-72
2022/09/05 12:24:09;;;;;;;3.53;2.22;;;;;;;21.83;65.78;93718.16;5091210;28;20059;-72
2022/09/05 12:26:42;;;;;;;4.65;2.40;;;;;;;22.13;67.92;93727.72;5090717;28;20542;-72